createdAt,value
2018-04-16T00:00:47.626Z,39.60
2018-04-16T00:03:16.013Z,44.63
2018-04-16T00:05:45.181Z,48.47
2018-04-16T00:08:13.589Z,45.57
2018-04-16T00:10:43.108Z,44.27
2018-04-16T00:13:11.519Z,45.63
2018-04-16T00:15:39.844Z,41.40
2018-04-16T00:18:08.281Z,49.03
2018-04-16T00:20:36.681Z,35.40
2018-04-16T00:23:05.036Z,38.53
2018-04-16T00:25:33.452Z,34.67
2018-04-16T00:28:01.821Z,35.07
2018-04-16T00:30:30.481Z,33.40
2018-04-16T00:33:04.658Z,35.60
2018-04-16T00:35:38.633Z,34.93
2018-04-16T00:38:12.591Z,33.43
2018-04-16T00:40:46.463Z,30.60
2018-04-16T00:43:21.664Z,38.37
2018-04-16T00:45:55.845Z,34.87
2018-04-16T00:51:36.679Z,31.10
2018-04-16T00:54:22.853Z,42.57
2018-04-16T00:56:56.916Z,35.60
2018-04-16T00:59:31.651Z,32.63
2018-04-16T01:02:06.331Z,36.70
2018-04-16T01:04:40.430Z,41.07
2018-04-16T01:07:15.221Z,37.13
2018-04-16T01:09:49.172Z,35.67
2018-04-16T01:12:23.169Z,44.27
2018-04-16T01:14:57.367Z,40.27
2018-04-16T01:17:31.356Z,41.60
2018-04-16T01:20:05.326Z,39.80
2018-04-16T01:22:39.341Z,34.93
2018-04-16T01:25:13.412Z,39.53
2018-04-16T01:27:47.417Z,39.00
2018-04-16T01:30:21.478Z,41.60
2018-04-16T01:32:55.575Z,42.40
2018-04-16T01:35:29.611Z,46.37
2018-04-16T01:38:03.471Z,43.60
2018-04-16T01:40:37.691Z,47.10
2018-04-16T01:43:11.732Z,41.77
2018-04-16T01:45:45.913Z,41.90
2018-04-16T01:48:19.872Z,39.30
2018-04-16T01:54:11.628Z,41.83
2018-04-16T03:12:49.465Z,37.27
2018-04-16T03:15:23.567Z,44.57
2018-04-16T03:17:57.623Z,46.20
2018-04-16T03:20:32.440Z,48.80
2018-04-16T03:23:06.396Z,50.07
2018-04-16T03:28:44.645Z,52.77
2018-04-16T03:31:18.743Z,49.10
2018-04-16T03:33:53.451Z,58.50
2018-04-16T03:36:27.562Z,48.93
2018-04-16T03:39:01.582Z,54.87
2018-04-16T03:41:36.540Z,48.87
2018-04-16T03:44:10.519Z,44.73
2018-04-16T03:46:44.865Z,42.73
2018-04-16T03:49:18.761Z,53.50
2018-04-16T03:54:53.006Z,46.83
2018-04-16T03:57:21.407Z,48.97
2018-04-16T03:59:49.764Z,50.87
2018-04-16T04:02:18.167Z,50.97
2018-04-16T04:04:46.585Z,52.90
2018-04-16T04:07:15.020Z,49.13
2018-04-16T04:09:44.176Z,57.43
2018-04-16T04:12:12.558Z,50.63
2018-04-16T04:14:40.971Z,51.10
2018-04-16T04:17:09.371Z,50.40
2018-04-16T04:19:38.525Z,51.63
2018-04-16T04:22:06.857Z,52.17
2018-04-16T04:24:47.899Z,54.07
2018-04-16T04:27:28.078Z,56.73
2018-04-16T04:30:09.000Z,59.73
2018-04-16T04:32:37.409Z,63.10
2018-04-16T04:35:05.794Z,53.57
2018-04-16T04:37:34.689Z,55.53
2018-04-16T04:40:03.830Z,58.40
2018-04-16T04:42:32.211Z,58.53
2018-04-16T04:45:00.596Z,51.53
2018-04-16T04:47:29.036Z,65.83
2018-04-16T04:49:58.193Z,61.33
2018-04-16T04:52:26.582Z,62.40
2018-04-16T04:54:54.986Z,68.67
2018-04-16T04:57:24.076Z,76.30
2018-04-16T04:59:53.702Z,60.43
2018-04-16T05:02:22.088Z,57.53
2018-04-16T05:04:50.476Z,85.90
2018-04-16T05:07:18.986Z,62.43
2018-04-16T05:09:47.417Z,63.60
2018-04-16T05:12:15.879Z,67.63
2018-04-16T05:14:44.992Z,71.47
2018-04-16T05:17:13.360Z,62.67
2018-04-16T05:19:42.502Z,61.57
2018-04-16T05:22:10.889Z,57.93
2018-04-16T05:24:39.786Z,55.43
2018-04-16T05:27:08.166Z,50.77
2018-04-16T05:29:36.547Z,46.87
2018-04-16T05:32:04.971Z,48.60
2018-04-16T05:34:33.389Z,53.90
2018-04-16T05:37:01.867Z,49.80
2018-04-16T05:39:30.243Z,47.87
2018-04-16T05:41:58.658Z,49.40
2018-04-16T05:44:27.771Z,48.77
2018-04-16T05:46:56.193Z,49.13
2018-04-16T05:49:24.606Z,50.60
2018-04-16T05:51:52.930Z,48.63
2018-04-16T05:54:21.632Z,52.17
2018-04-16T05:56:50.032Z,52.60
2018-04-16T05:59:18.357Z,56.43
2018-04-16T06:01:46.766Z,49.00
2018-04-16T06:04:15.162Z,49.73
2018-04-16T06:06:43.579Z,51.77
2018-04-16T06:09:11.968Z,50.70
2018-04-16T06:11:40.375Z,49.03
2018-04-16T06:14:08.722Z,48.10
2018-04-16T06:16:37.212Z,49.43
2018-04-16T06:19:06.391Z,50.77
2018-04-16T06:21:34.832Z,50.00
2018-04-16T06:24:03.248Z,48.33
2018-04-16T06:26:32.923Z,46.20
2018-04-16T06:29:01.284Z,46.83
2018-04-16T06:31:29.648Z,46.87
2018-04-16T06:33:58.852Z,49.00
2018-04-16T06:36:27.256Z,46.10
2018-04-16T06:38:55.789Z,47.60
2018-04-16T06:41:24.153Z,49.90
2018-04-16T06:43:52.475Z,45.90
2018-04-16T06:46:20.889Z,46.33
2018-04-16T06:48:50.077Z,49.07
2018-04-16T06:51:18.492Z,46.27
2018-04-16T06:53:46.907Z,44.40
2018-04-16T06:56:15.271Z,47.00
2018-04-16T06:58:43.620Z,46.80
2018-04-16T07:01:12.015Z,45.63
2018-04-16T07:03:40.383Z,45.57
2018-04-16T07:06:08.780Z,44.83
2018-04-16T07:08:37.251Z,42.77
2018-04-16T07:11:05.651Z,42.23
2018-04-16T07:13:34.021Z,41.90
2018-04-16T07:16:02.419Z,42.60
2018-04-16T07:18:31.070Z,43.73
2018-04-16T07:20:59.488Z,39.93
2018-04-16T07:23:27.895Z,41.87
2018-04-16T07:25:57.096Z,40.33
2018-04-16T07:28:25.507Z,38.27
2018-04-16T07:30:53.895Z,38.67
2018-04-16T07:33:22.311Z,37.10
2018-04-16T07:35:51.926Z,37.50
2018-04-16T07:38:21.055Z,37.20
2018-04-16T07:40:49.415Z,38.07
2018-04-16T07:43:17.779Z,35.10
2018-04-16T07:45:46.941Z,33.17
2018-04-16T07:48:15.319Z,32.73
2018-04-16T07:50:44.151Z,31.20
2018-04-16T07:53:13.308Z,30.77
2018-04-16T07:55:41.724Z,28.30
2018-04-16T07:58:10.879Z,28.90
2018-04-16T08:00:39.394Z,29.53
2018-04-16T08:03:08.546Z,25.83
2018-04-16T08:05:36.935Z,26.00
2018-04-16T08:08:05.340Z,25.27
2018-04-16T08:10:34.458Z,20.27
2018-04-16T08:13:03.007Z,16.90
2018-04-16T08:15:31.409Z,16.20
2018-04-16T08:18:00.578Z,16.47
2018-04-16T08:20:28.929Z,14.47
2018-04-16T08:22:57.290Z,13.33
2018-04-16T08:25:26.099Z,13.20
2018-04-16T08:27:54.496Z,13.50
2018-04-16T08:30:22.831Z,12.50
2018-04-16T08:32:51.231Z,13.03
2018-04-16T08:35:19.558Z,13.53
2018-04-16T08:37:48.835Z,13.47
2018-04-16T08:40:17.192Z,13.27
2018-04-16T08:42:45.582Z,12.17
2018-04-16T08:45:14.068Z,12.63
2018-04-16T08:47:42.661Z,11.83
2018-04-16T08:50:11.111Z,11.33
2018-04-16T08:52:39.532Z,10.30
2018-04-16T08:55:07.923Z,10.53
2018-04-16T08:57:36.279Z,10.03
2018-04-16T09:00:05.401Z,11.03
2018-04-16T09:02:33.810Z,10.73
2018-04-16T09:05:02.241Z,9.87
2018-04-16T09:07:31.332Z,9.03
2018-04-16T09:10:00.475Z,9.10
2018-04-16T09:12:29.408Z,9.80
2018-04-16T09:14:58.287Z,9.83
2018-04-16T09:17:26.692Z,8.20
2018-04-16T09:19:55.459Z,9.90
2018-04-16T09:22:23.956Z,9.83
2018-04-16T09:24:53.137Z,9.47
2018-04-16T09:27:21.496Z,9.40
2018-04-16T09:29:49.905Z,9.40
2018-04-16T09:32:19.612Z,9.43
2018-04-16T09:34:48.897Z,8.10
2018-04-16T09:37:17.284Z,7.27
2018-04-16T09:39:46.011Z,6.70
2018-04-16T09:42:14.808Z,6.87
2018-04-16T09:44:43.204Z,11.37
2018-04-16T09:47:11.699Z,13.17
2018-04-16T09:49:40.086Z,14.20
2018-04-16T09:52:08.701Z,13.10
2018-04-16T09:54:37.108Z,13.63
2018-04-16T09:57:05.475Z,13.07
2018-04-16T09:59:33.822Z,13.97
2018-04-16T10:04:56.720Z,15.57
2018-04-16T10:07:25.130Z,15.93
2018-04-16T10:09:53.514Z,16.10
2018-04-16T10:12:21.920Z,16.97
2018-04-16T10:14:51.048Z,17.77
2018-04-16T10:17:19.503Z,18.37
2018-04-16T10:19:48.656Z,18.47
2018-04-16T10:22:17.039Z,17.37
2018-04-16T10:24:45.593Z,16.97
2018-04-16T10:27:13.975Z,14.27
2018-04-16T10:29:42.363Z,15.07
2018-04-16T10:34:45.743Z,13.37
2018-04-16T10:37:14.139Z,16.73
2018-04-16T10:39:42.529Z,17.53
2018-04-16T10:42:11.351Z,18.07
2018-04-16T10:44:39.896Z,16.70
2018-04-16T10:47:09.715Z,17.50
2018-04-16T10:49:38.147Z,17.77
2018-04-16T10:52:07.326Z,16.40
2018-04-16T10:54:35.706Z,16.77
2018-04-16T10:57:04.884Z,12.60
2018-04-16T10:59:33.239Z,10.83
2018-04-16T11:02:01.655Z,12.67
2018-04-16T11:04:30.022Z,11.37
2018-04-16T11:06:58.436Z,10.00
2018-04-16T11:09:26.769Z,11.13
2018-04-16T11:11:55.179Z,11.80
2018-04-16T11:14:24.368Z,15.50
2018-04-16T11:16:52.768Z,15.67
2018-04-16T11:19:21.175Z,16.43
2018-04-16T11:21:49.558Z,16.87
2018-04-16T11:24:18.491Z,17.03
2018-04-16T11:26:46.851Z,16.33
2018-04-16T11:29:15.264Z,15.33
2018-04-16T11:31:44.550Z,15.53
2018-04-16T11:34:12.885Z,16.53
2018-04-16T11:36:41.273Z,16.00
2018-04-16T11:39:09.654Z,14.37
2018-04-16T11:41:38.016Z,14.13
2018-04-16T11:44:06.471Z,14.53
2018-04-16T11:46:34.828Z,13.83
2018-04-16T11:49:03.992Z,14.97
2018-04-16T11:51:32.397Z,15.20
2018-04-16T11:54:01.578Z,15.30
2018-04-16T11:56:29.980Z,15.20
2018-04-16T11:58:59.116Z,14.03
2018-04-16T12:01:27.631Z,13.87
2018-04-16T12:03:56.034Z,13.50
2018-04-16T12:06:25.186Z,13.97
2018-04-16T12:08:53.598Z,13.73
2018-04-16T12:11:22.399Z,14.07
2018-04-16T12:13:51.527Z,14.03
2018-04-16T12:16:19.915Z,15.63
2018-04-16T12:18:48.348Z,14.90
2018-04-16T12:21:17.448Z,15.07
2018-04-16T12:23:47.078Z,16.30
2018-04-16T12:26:15.468Z,19.40
2018-04-16T12:28:44.607Z,18.33
2018-04-16T12:31:12.959Z,20.17
2018-04-16T12:33:41.345Z,18.97
2018-04-16T12:36:09.705Z,20.67
2018-04-16T12:38:38.448Z,21.53
2018-04-16T12:41:07.613Z,22.03
2018-04-16T12:43:36.029Z,22.07
2018-04-16T12:46:04.397Z,21.07
2018-04-16T12:48:33.491Z,21.50
2018-04-16T12:51:02.667Z,19.90
2018-04-16T12:53:31.182Z,21.47
2018-04-16T12:55:59.586Z,21.33
2018-04-16T12:58:28.735Z,21.40
2018-04-16T13:00:58.000Z,21.50
2018-04-16T13:03:26.337Z,16.40
2018-04-16T13:05:54.758Z,15.10
2018-04-16T13:08:23.534Z,14.87
2018-04-16T13:10:51.927Z,15.00
2018-04-16T13:13:20.311Z,14.87
2018-04-16T13:15:48.831Z,14.50
2018-04-16T13:18:17.926Z,15.47
2018-04-16T13:20:46.289Z,16.03
2018-04-16T13:23:15.441Z,14.90
2018-04-16T13:25:43.879Z,15.90
2018-04-16T13:28:12.272Z,15.83
2018-04-16T13:30:40.792Z,16.07
2018-04-16T13:33:09.200Z,14.77
2018-04-16T13:35:38.357Z,16.43
2018-04-16T13:38:06.726Z,16.27
2018-04-16T13:40:35.104Z,14.77
2018-04-16T13:43:03.581Z,15.23
2018-04-16T13:45:32.163Z,15.57
2018-04-16T13:48:00.935Z,15.13
2018-04-16T13:50:29.333Z,15.07
2018-04-16T13:52:57.756Z,16.03
2018-04-16T13:55:26.888Z,15.93
2018-04-16T13:57:55.336Z,13.97
2018-04-16T14:00:24.468Z,13.10
2018-04-16T14:02:52.828Z,12.83
2018-04-16T14:05:21.221Z,13.67
2018-04-16T14:07:49.580Z,13.60
2018-04-16T14:10:17.962Z,14.00
2018-04-16T14:12:46.346Z,14.13
2018-04-16T14:15:14.727Z,13.10
2018-04-16T14:17:43.059Z,13.17
2018-04-16T14:20:11.524Z,14.10
2018-04-16T14:22:39.920Z,12.03
2018-04-16T14:25:08.288Z,12.50
2018-04-16T14:27:36.720Z,13.10
2018-04-16T14:30:05.160Z,12.07
2018-04-16T14:32:33.551Z,12.13
2018-04-16T14:35:03.220Z,10.47
2018-04-16T14:37:31.541Z,9.37
2018-04-16T14:40:00.682Z,8.07
2018-04-16T14:42:29.119Z,8.10
2018-04-16T14:44:58.237Z,7.50
2018-04-16T14:47:26.597Z,8.47
2018-04-16T14:49:55.738Z,7.40
2018-04-16T14:52:24.135Z,8.67
2018-04-16T14:54:52.522Z,8.67
2018-04-16T14:57:20.873Z,8.23
2018-04-16T14:59:49.226Z,8.53
2018-04-16T15:02:17.695Z,8.77
2018-04-16T15:04:46.456Z,8.07
2018-04-16T15:07:14.836Z,8.33
2018-04-16T15:09:43.975Z,8.73
2018-04-16T15:12:12.407Z,7.17
2018-04-16T15:14:41.553Z,8.80
2018-04-16T15:17:09.916Z,8.10
2018-04-16T15:19:38.379Z,8.50
2018-04-16T15:22:06.704Z,7.93
2018-04-16T15:24:35.055Z,8.47
2018-04-16T15:27:03.425Z,8.87
2018-04-16T15:29:31.784Z,9.00
2018-04-16T15:32:00.904Z,8.27
2018-04-16T15:34:29.309Z,8.67
2018-04-16T15:36:57.713Z,8.83
2018-04-16T15:39:26.095Z,8.30
2018-04-16T15:41:54.551Z,7.43
2018-04-16T15:44:23.295Z,6.90
2018-04-16T15:46:52.427Z,6.23
2018-04-16T15:49:20.775Z,6.30
2018-04-16T15:51:49.130Z,6.03
2018-04-16T15:54:18.236Z,6.40
2018-04-16T15:56:46.632Z,6.30
2018-04-16T15:59:15.010Z,6.00
2018-04-16T16:01:43.373Z,6.30
2018-04-16T16:04:11.775Z,5.97
2018-04-16T16:06:40.095Z,5.10
2018-04-16T16:09:08.973Z,5.37
2018-04-16T16:11:37.356Z,5.17
2018-04-16T16:14:05.737Z,5.33
2018-04-16T16:16:34.145Z,5.27
2018-04-16T16:19:02.524Z,4.80
2018-04-16T16:21:30.900Z,5.70
2018-04-16T16:23:59.308Z,5.47
2018-04-16T16:26:27.718Z,5.73
2018-04-16T16:28:56.226Z,5.97
2018-04-16T16:31:25.376Z,6.00
2018-04-16T16:33:53.730Z,5.50
2018-04-16T16:36:22.127Z,6.23
2018-04-16T16:38:50.527Z,5.60
2018-04-16T16:41:18.872Z,5.87
2018-04-16T16:43:47.256Z,6.27
2018-04-16T16:46:16.427Z,6.57
2018-04-16T16:48:44.840Z,6.70
2018-04-16T16:51:13.167Z,6.47
2018-04-16T16:53:42.736Z,7.10
2018-04-16T16:56:11.114Z,6.30
2018-04-16T16:58:40.241Z,6.80
2018-04-16T17:01:09.396Z,6.63
2018-04-16T17:03:38.145Z,7.50
2018-04-16T17:06:06.554Z,7.77
2018-04-16T17:08:34.907Z,6.53
2018-04-16T17:11:03.325Z,7.03
2018-04-16T17:13:31.691Z,7.20
2018-04-16T17:16:00.109Z,7.27
2018-04-16T17:18:29.208Z,7.30
2018-04-16T17:20:58.381Z,8.47
2018-04-16T17:23:26.745Z,7.47
2018-04-16T17:25:55.116Z,8.17
2018-04-16T17:28:23.477Z,7.77
2018-04-16T17:30:51.823Z,7.63
2018-04-16T17:33:20.972Z,7.60
2018-04-16T17:35:49.381Z,8.13
2018-04-16T17:38:17.792Z,7.53
2018-04-16T17:40:46.143Z,9.53
2018-04-16T17:43:15.290Z,8.97
2018-04-16T17:45:44.104Z,9.43
2018-04-16T17:48:12.495Z,10.17
2018-04-16T17:50:40.829Z,10.10
2018-04-16T17:53:09.271Z,10.40
2018-04-16T17:55:38.457Z,11.13
2018-04-16T17:58:07.617Z,11.67
2018-04-16T18:00:36.052Z,11.27
2018-04-16T18:03:04.458Z,11.33
2018-04-16T18:05:32.866Z,11.70
2018-04-16T18:08:01.215Z,12.20
2018-04-16T18:10:29.753Z,11.77
2018-04-16T18:12:58.852Z,12.30
2018-04-16T18:15:27.945Z,12.43
2018-04-16T18:17:57.146Z,13.30
2018-04-16T18:20:25.511Z,13.53
2018-04-16T18:22:54.647Z,12.57
2018-04-16T18:25:23.832Z,12.83
2018-04-16T18:27:52.247Z,12.57
2018-04-16T18:30:20.642Z,13.03
2018-04-16T18:32:49.000Z,13.03
2018-04-16T18:35:17.386Z,13.00
2018-04-16T18:37:45.823Z,13.30
2018-04-16T18:40:14.150Z,12.97
2018-04-16T18:42:42.982Z,13.43
2018-04-16T18:45:11.339Z,13.13
2018-04-16T18:47:40.494Z,13.47
2018-04-16T18:50:08.899Z,12.43
2018-04-16T18:52:37.302Z,12.67
2018-04-16T18:55:06.402Z,14.27
2018-04-16T18:57:35.609Z,14.20
2018-04-16T19:00:03.979Z,13.80
2018-04-16T19:02:32.316Z,14.23
2018-04-16T19:05:00.777Z,13.87
2018-04-16T19:07:29.209Z,13.20
2018-04-16T19:09:57.563Z,14.43
2018-04-16T19:12:25.997Z,12.90
2018-04-16T19:14:54.383Z,13.93
2018-04-16T19:17:23.362Z,13.80
2018-04-16T19:19:51.755Z,13.80
2018-04-16T19:22:20.573Z,14.40
2018-04-16T19:24:48.945Z,13.20
2018-04-16T19:27:22.916Z,14.20
2018-04-16T19:29:51.285Z,14.57
2018-04-16T19:32:19.663Z,14.07
2018-04-16T19:34:53.738Z,13.10
2018-04-16T19:37:22.920Z,12.07
2018-04-16T19:39:51.287Z,11.73
2018-04-16T19:42:25.559Z,11.20
2018-04-16T19:44:53.918Z,12.47
2018-04-16T19:47:23.584Z,12.67
2018-04-16T19:49:57.493Z,12.57
2018-04-16T19:52:25.981Z,13.67
2018-04-16T19:54:55.143Z,15.87
2018-04-16T19:57:29.631Z,14.67
2018-04-16T19:59:58.796Z,16.17
2018-04-16T20:02:32.951Z,15.90
2018-04-16T20:05:02.068Z,14.60
2018-04-16T20:07:30.460Z,17.03
2018-04-16T20:09:58.814Z,20.23
2018-04-16T20:12:27.146Z,18.47
2018-04-16T20:14:55.608Z,18.10
2018-04-16T20:17:23.990Z,21.77
2018-04-16T20:19:53.138Z,22.13
2018-04-16T20:22:21.542Z,18.33
2018-04-16T20:24:49.900Z,20.70
2018-04-16T20:27:18.280Z,19.73
2018-04-16T20:29:46.664Z,17.50
2018-04-16T20:32:15.139Z,22.53
2018-04-16T20:34:43.526Z,23.10
2018-04-16T20:37:11.919Z,23.47
2018-04-16T20:39:40.329Z,23.90
2018-04-16T20:42:08.828Z,23.27
2018-04-16T20:44:37.984Z,25.07
2018-04-16T20:47:06.350Z,22.17
2018-04-16T20:49:35.297Z,23.70
2018-04-16T20:52:03.681Z,23.50
2018-04-16T20:54:32.808Z,25.17
2018-04-16T20:57:01.159Z,25.17
2018-04-16T20:59:29.527Z,27.30
2018-04-16T21:01:57.923Z,25.33
2018-04-16T21:04:26.255Z,24.03
2018-04-16T21:06:54.664Z,23.70
2018-04-16T21:09:23.787Z,24.90
2018-04-16T21:11:52.151Z,24.83
2018-04-16T21:14:20.506Z,22.20
2018-04-16T21:16:49.675Z,24.50
2018-04-16T21:19:18.089Z,21.80
2018-04-16T21:21:47.283Z,21.87
2018-04-16T21:24:16.431Z,23.23
2018-04-16T21:26:44.874Z,24.70
2018-04-16T21:29:13.270Z,23.53
2018-04-16T21:31:41.675Z,21.67
2018-04-16T21:34:10.029Z,25.10
2018-04-16T21:36:38.452Z,22.93
2018-04-16T21:39:06.800Z,26.37
2018-04-16T21:41:35.175Z,26.40
2018-04-16T21:44:03.565Z,27.17
2018-04-16T21:46:32.012Z,26.83
2018-04-16T21:49:00.402Z,27.50
2018-04-16T21:51:28.730Z,26.40
2018-04-16T21:53:57.907Z,26.00
2018-04-16T21:56:26.304Z,25.63
2018-04-16T21:58:55.417Z,31.53
2018-04-16T22:01:23.926Z,30.03
2018-04-16T22:03:52.315Z,30.63
2018-04-16T22:06:20.700Z,28.40
2018-04-16T22:08:49.109Z,31.93
2018-04-16T22:11:17.494Z,32.47
2018-04-16T22:13:46.679Z,30.23
2018-04-16T22:16:15.069Z,30.13
2018-04-16T22:18:44.255Z,29.33
2018-04-16T22:21:12.713Z,31.80
2018-04-16T22:23:41.528Z,29.70
2018-04-16T22:26:09.916Z,30.90
2018-04-16T22:28:39.036Z,30.37
2018-04-16T22:31:07.443Z,29.10
2018-04-16T22:33:35.788Z,28.13
2018-04-16T22:36:04.275Z,29.00
2018-04-16T22:38:32.661Z,28.43
2018-04-16T22:41:01.020Z,29.07
2018-04-16T22:43:29.423Z,29.67
2018-04-16T22:45:57.963Z,29.20
2018-04-16T22:48:27.070Z,32.20
2018-04-16T22:50:55.394Z,30.43
2018-04-16T22:53:23.792Z,28.60
2018-04-16T22:55:52.178Z,31.97
2018-04-16T22:58:20.574Z,30.40
2018-04-16T23:00:49.732Z,26.80
2018-04-16T23:03:18.147Z,26.17
2018-04-16T23:05:47.301Z,27.37
2018-04-16T23:08:16.488Z,31.60
2018-04-16T23:10:44.891Z,30.83
2018-04-16T23:13:13.292Z,28.93
2018-04-16T23:15:42.601Z,30.03
2018-04-16T23:18:11.951Z,30.50
2018-04-16T23:20:40.331Z,28.23
2018-04-16T23:23:08.696Z,29.87
2018-04-16T23:25:37.126Z,28.70
2018-04-16T23:28:06.272Z,30.30
2018-04-16T23:30:34.655Z,27.20
2018-04-16T23:33:03.064Z,26.47
2018-04-16T23:35:31.391Z,28.07
2018-04-16T23:37:59.796Z,25.13
2018-04-16T23:40:28.115Z,29.10
2018-04-16T23:42:57.252Z,26.77
2018-04-16T23:45:26.424Z,26.00
2018-04-16T23:47:54.839Z,28.63
2018-04-16T23:50:23.247Z,24.20
2018-04-16T23:52:51.637Z,25.00
2018-04-16T23:55:20.446Z,23.57
2018-04-16T23:57:48.841Z,23.70
